createdAt,value
2019-02-26T00:00:33.977Z,26.7
2019-02-26T00:01:19.080Z,26.7
2019-02-26T00:02:11.079Z,26.6
2019-02-26T00:03:11.386Z,26.6
2019-02-26T00:03:44.804Z,26.6
2019-02-26T00:04:43.172Z,26.6
2019-02-26T00:05:39.302Z,26.5
2019-02-26T00:06:12.941Z,26.5
2019-02-26T00:07:08.747Z,26.5
2019-02-26T00:08:08.851Z,26.4
2019-02-26T00:08:47.169Z,26.4
2019-02-26T00:09:43.586Z,26.4
2019-02-26T00:10:40.891Z,26.4
2019-02-26T00:11:19.161Z,26.4
2019-02-26T00:12:01.987Z,26.3
2019-02-26T00:12:52.336Z,26.3
2019-02-26T00:13:47.958Z,26.3
2019-02-26T00:14:39.111Z,26.3
2019-02-26T00:15:22.326Z,26.3
2019-02-26T00:16:28.133Z,26.3
2019-02-26T00:17:06.813Z,26.2
2019-02-26T00:17:59.675Z,26.2
2019-02-26T00:18:44.581Z,26.2
2019-02-26T00:19:32.021Z,26.2
2019-02-26T00:20:28.986Z,26.2
2019-02-26T00:21:14.171Z,26.1
2019-02-26T00:22:04.280Z,26.1
2019-02-26T00:23:04.328Z,26.1
2019-02-26T00:23:55.057Z,26.2
2019-02-26T00:24:51.124Z,26.2
2019-02-26T00:25:29.839Z,26.3
2019-02-26T00:26:26.165Z,26.3
2019-02-26T00:27:14.712Z,26.4
2019-02-26T00:28:04.058Z,26.5
2019-02-26T00:28:54.130Z,26.6
2019-02-26T00:29:40.523Z,26.6
2019-02-26T00:30:27.772Z,26.7
2019-02-26T00:31:15.843Z,26.7
2019-02-26T00:32:15.976Z,26.7
2019-02-26T00:33:05.565Z,26.8
2019-02-26T00:33:43.033Z,26.8
2019-02-26T00:34:44.776Z,26.8
2019-02-26T00:35:35.811Z,26.8
2019-02-26T00:36:22.474Z,26.8
2019-02-26T00:37:14.175Z,26.8
2019-02-26T00:38:04.465Z,26.8
2019-02-26T00:38:53.247Z,26.8
2019-02-26T00:39:40.545Z,26.7
2019-02-26T00:40:28.862Z,26.7
2019-02-26T00:41:16.367Z,26.8
2019-02-26T00:42:13.044Z,26.5
2019-02-26T00:43:12.947Z,26.2
2019-02-26T00:43:45.917Z,25.9
2019-02-26T00:44:44.839Z,25.8
2019-02-26T00:45:44.181Z,25.8
2019-02-26T00:46:18.671Z,25.8
2019-02-26T00:47:16.612Z,25.8
2019-02-26T00:47:56.619Z,25.8
2019-02-26T00:48:51.374Z,25.8
2019-02-26T00:49:38.507Z,25.8
2019-02-26T00:50:27.964Z,25.7
2019-02-26T00:51:18.625Z,25.6
2019-02-26T00:52:16.302Z,25.6
2019-02-26T00:53:07.086Z,25.6
2019-02-26T00:53:44.261Z,25.5
2019-02-26T00:54:45.464Z,25.4
2019-02-26T00:55:42.286Z,25.4
2019-02-26T00:56:19.901Z,25.4
2019-02-26T00:57:21.788Z,25.3
2019-02-26T00:58:09.029Z,25.3
2019-02-26T00:58:58.186Z,25.3
2019-02-26T00:59:48.524Z,25.4
2019-02-26T01:00:36.593Z,25.4
2019-02-26T01:01:30.366Z,25.5
2019-02-26T01:02:08.926Z,25.6
2019-02-26T01:02:54.700Z,25.6
2019-02-26T01:03:56.896Z,25.7
2019-02-26T01:04:35.621Z,25.8
2019-02-26T01:05:25.167Z,25.8
2019-02-26T01:06:18.603Z,25.9
2019-02-26T01:07:15.428Z,25.9
2019-02-26T01:08:03.190Z,25.9
2019-02-26T01:08:54.683Z,25.9
2019-02-26T01:09:41.818Z,25.9
2019-02-26T01:10:31.449Z,25.9
2019-02-26T01:11:16.563Z,26
2019-02-26T01:12:06.139Z,26
2019-02-26T01:13:00.821Z,26
2019-02-26T01:13:45.772Z,25.9
2019-02-26T01:14:35.018Z,25.9
2019-02-26T01:15:25.295Z,25.9
2019-02-26T01:16:15.365Z,25.9
2019-02-26T01:17:13.861Z,25.9
2019-02-26T01:18:07.143Z,25.8
2019-02-26T01:18:57.564Z,25.8
2019-02-26T01:19:46.885Z,25.8
2019-02-26T01:20:38.660Z,25.7
2019-02-26T01:21:16.237Z,25.6
2019-02-26T01:22:06.277Z,25.6
2019-02-26T01:22:56.110Z,25.6
2019-02-26T01:23:46.139Z,25.5
2019-02-26T01:24:40.892Z,25.4
2019-02-26T01:25:31.417Z,25.9
2019-02-26T01:26:20.345Z,25.8
2019-02-26T01:27:06.625Z,25.5
2019-02-26T01:28:08.247Z,25.3
2019-02-26T01:29:07.869Z,25.1
2019-02-26T01:29:41.497Z,25
2019-02-26T01:30:44.211Z,25
2019-02-26T01:31:16.385Z,25
2019-02-26T01:32:26.947Z,25
2019-02-26T01:33:10.200Z,24.9
2019-02-26T01:33:58.375Z,24.9
2019-02-26T01:34:37.786Z,24.9
2019-02-26T01:35:39.764Z,24.8
2019-02-26T01:36:29.256Z,24.8
2019-02-26T01:37:18.896Z,24.8
2019-02-26T01:38:08.079Z,24.7
2019-02-26T01:39:00.579Z,24.7
2019-02-26T01:39:56.361Z,24.7
2019-02-26T01:40:33.839Z,24.7
2019-02-26T01:41:33.996Z,24.8
2019-02-26T01:42:08.377Z,24.8
2019-02-26T01:43:13.484Z,24.9
2019-02-26T01:43:47.766Z,25
2019-02-26T01:44:51.548Z,25.1
2019-02-26T01:45:39.914Z,25.1
2019-02-26T01:46:27.199Z,25.1
2019-02-26T01:47:13.955Z,25.2
2019-02-26T01:48:01.581Z,25.3
2019-02-26T01:48:49.566Z,25.3
2019-02-26T01:49:44.163Z,25.3
2019-02-26T01:50:41.481Z,25.3
2019-02-26T01:51:29.737Z,25.3
2019-02-26T01:52:20.070Z,25.4
2019-02-26T01:53:09.269Z,25.3
2019-02-26T01:54:01.449Z,25.3
2019-02-26T01:54:47.423Z,25.3
2019-02-26T01:55:36.207Z,25.3
2019-02-26T01:56:23.093Z,25.3
2019-02-26T01:57:13.378Z,25.3
2019-02-26T01:58:02.818Z,25.3
2019-02-26T01:59:04.965Z,25.3
2019-02-26T01:59:43.373Z,25.3
2019-02-26T02:00:33.773Z,25.2
2019-02-26T02:01:34.403Z,25.2
2019-02-26T02:02:27.718Z,25.1
2019-02-26T02:03:00.111Z,25.1
2019-02-26T02:04:01.770Z,25.1
2019-02-26T02:04:51.048Z,25
2019-02-26T02:05:39.571Z,25
2019-02-26T02:06:27.302Z,24.9
2019-02-26T02:07:14.738Z,24.9
2019-02-26T02:08:04.547Z,24.9
2019-02-26T02:09:02.593Z,24.8
2019-02-26T02:09:39.889Z,24.8
2019-02-26T02:10:29.805Z,24.8
2019-02-26T02:11:31.109Z,24.8
2019-02-26T02:12:19.487Z,24.7
2019-02-26T02:13:18.647Z,24.7
2019-02-26T02:13:53.055Z,24.7
2019-02-26T02:14:40.910Z,24.7
2019-02-26T02:15:32.808Z,24.7
2019-02-26T02:16:19.380Z,24.7
2019-02-26T02:17:22.370Z,24.7
2019-02-26T02:18:11.315Z,25.3
2019-02-26T02:19:06.514Z,25.4
2019-02-26T02:19:42.975Z,25.1
2019-02-26T02:20:31.707Z,24.9
2019-02-26T02:21:25.843Z,24.7
2019-02-26T02:22:21.915Z,24.6
2019-02-26T02:23:12.352Z,24.4
2019-02-26T02:24:00.470Z,24.4
2019-02-26T02:25:00.000Z,24.4
2019-02-26T02:25:49.372Z,24.3
2019-02-26T02:26:24.852Z,24.3
2019-02-26T02:27:19.408Z,24.2
2019-02-26T02:28:12.457Z,24.1
2019-02-26T02:28:52.157Z,24.1
2019-02-26T02:29:58.537Z,24.1
2019-02-26T02:30:47.392Z,24.1
2019-02-26T02:31:37.802Z,24.1
2019-02-26T02:32:17.156Z,24.1
2019-02-26T02:33:11.412Z,24.2
2019-02-26T02:33:51.135Z,24.3
2019-02-26T02:34:51.494Z,24.3
2019-02-26T02:35:31.259Z,24.4
2019-02-26T02:36:34.711Z,24.4
2019-02-26T02:37:11.712Z,24.5
2019-02-26T02:38:13.886Z,24.6
2019-02-26T02:38:51.784Z,24.6
2019-02-26T02:39:41.522Z,24.6
2019-02-26T02:40:32.564Z,24.7
2019-02-26T02:41:21.974Z,24.7
2019-02-26T02:42:25.521Z,24.7
2019-02-26T02:43:25.571Z,24.8
2019-02-26T02:43:52.646Z,24.8
2019-02-26T02:44:56.248Z,24.8
2019-02-26T02:45:31.191Z,24.8
2019-02-26T02:46:22.041Z,24.8
2019-02-26T02:47:20.381Z,24.8
2019-02-26T02:48:21.393Z,24.8
2019-02-26T02:48:52.526Z,24.8
2019-02-26T02:49:53.307Z,24.8
2019-02-26T02:50:33.386Z,24.8
2019-02-26T02:51:22.737Z,24.8
2019-02-26T02:52:19.905Z,24.7
2019-02-26T02:53:12.605Z,24.7
2019-02-26T02:54:06.300Z,24.6
2019-02-26T02:54:56.575Z,24.6
2019-02-26T02:55:33.227Z,24.6
2019-02-26T02:56:26.743Z,24.6
2019-02-26T02:57:21.602Z,24.5
2019-02-26T02:58:08.691Z,24.4
2019-02-26T02:59:00.721Z,24.4
2019-02-26T02:59:50.566Z,24.4
2019-02-26T03:00:42.705Z,24.4
2019-02-26T03:01:36.730Z,24.3
2019-02-26T03:02:28.068Z,24.3
2019-02-26T03:03:07.093Z,24.3
2019-02-26T03:04:09.187Z,24.3
2019-02-26T03:04:43.718Z,24.3
2019-02-26T03:08:10.212Z,24.2
2019-02-26T03:09:01.725Z,24.2
2019-02-26T03:09:54.290Z,24.1
2019-02-26T03:10:52.519Z,24.1
2019-02-26T03:11:20.880Z,24.1
2019-02-26T03:12:11.235Z,24.2
2019-02-26T03:13:11.652Z,24.2
2019-02-26T03:14:02.317Z,24.2
2019-02-26T03:14:53.319Z,24.3
2019-02-26T03:15:44.769Z,24.3
2019-02-26T03:16:35.498Z,24.3
2019-02-26T03:17:26.793Z,24.4
2019-02-26T03:18:13.995Z,24.4
2019-02-26T03:18:51.484Z,24.5
2019-02-26T03:19:52.094Z,24.5
2019-02-26T03:20:48.435Z,24.6
2019-02-26T03:21:37.060Z,24.7
2019-02-26T03:22:27.154Z,24.8
2019-02-26T03:23:07.093Z,24.8
2019-02-26T03:24:00.166Z,24.9
2019-02-26T03:24:45.691Z,24.9
2019-02-26T03:25:38.641Z,25
2019-02-26T03:26:35.999Z,25
2019-02-26T03:27:12.511Z,25.1
2019-02-26T03:28:03.121Z,25.1
2019-02-26T03:29:02.379Z,25.1
2019-02-26T03:29:45.015Z,25.3
2019-02-26T03:30:53.669Z,25.8
2019-02-26T03:31:54.633Z,28.2
2019-02-26T03:32:13.562Z,30.8
2019-02-26T03:33:14.453Z,31.4
2019-02-26T03:34:25.718Z,33.1
2019-02-26T03:34:43.329Z,34.2
2019-02-26T03:35:33.473Z,34.3
2019-02-26T03:36:28.396Z,34.6
2019-02-26T03:37:19.860Z,34.5
2019-02-26T03:38:12.663Z,34.1
2019-02-26T03:39:11.243Z,33.5
2019-02-26T03:39:43.335Z,33
2019-02-26T03:40:44.619Z,32.7
2019-02-26T03:41:38.809Z,32.1
2019-02-26T03:42:26.765Z,31.7
2019-02-26T03:43:18.618Z,31.4
2019-02-26T03:44:04.074Z,31
2019-02-26T03:44:48.303Z,30.8
2019-02-26T03:45:35.292Z,30.6
2019-02-26T03:46:23.377Z,30.9
2019-02-26T03:47:13.240Z,32.5
2019-02-26T03:48:07.301Z,33.9
2019-02-26T03:48:53.315Z,34.8
2019-02-26T03:49:48.412Z,35.4
2019-02-26T03:50:36.211Z,35.9
2019-02-26T03:51:27.769Z,36.1
2019-02-26T03:52:18.895Z,35.9
2019-02-26T03:53:03.842Z,35.8
2019-02-26T03:53:53.809Z,35.5
2019-02-26T03:54:58.985Z,35
2019-02-26T03:55:48.078Z,34.2
2019-02-26T03:56:30.345Z,33.7
2019-02-26T03:57:30.809Z,33.3
2019-02-26T03:58:11.313Z,32.8
2019-02-26T03:59:17.245Z,32.5
2019-02-26T03:59:44.144Z,32.1
2019-02-26T04:00:51.112Z,31.9
2019-02-26T04:01:31.832Z,33.4
2019-02-26T04:02:30.857Z,34.3
2019-02-26T04:03:19.872Z,35.4
2019-02-26T04:03:59.734Z,35.9
2019-02-26T04:05:08.785Z,36.3
2019-02-26T04:05:35.391Z,36.5
2019-02-26T04:06:24.862Z,36.4
2019-02-26T04:07:19.603Z,36.3
2019-02-26T04:08:13.664Z,36
2019-02-26T04:09:05.026Z,35.6
2019-02-26T04:10:06.519Z,35
2019-02-26T04:10:36.025Z,34.4
2019-02-26T04:11:36.416Z,34
2019-02-26T04:12:28.982Z,33.4
2019-02-26T04:13:08.269Z,33
2019-02-26T04:14:05.589Z,33.1
2019-02-26T04:14:46.371Z,34.5
2019-02-26T04:15:45.966Z,35.3
2019-02-26T04:16:25.526Z,36
2019-02-26T04:17:23.101Z,36.4
2019-02-26T04:18:06.249Z,36.8
2019-02-26T04:19:01.081Z,36.9
2019-02-26T04:19:50.923Z,36.8
2019-02-26T04:20:43.258Z,36.6
2019-02-26T04:21:30.658Z,36.3
2019-02-26T04:22:32.271Z,36.1
2019-02-26T04:23:16.077Z,35.4
2019-02-26T04:23:58.553Z,34.8
2019-02-26T04:24:46.973Z,34.4
2019-02-26T04:25:45.119Z,33.9
2019-02-26T04:26:42.758Z,35.1
2019-02-26T04:27:16.935Z,36
2019-02-26T04:28:18.598Z,36.4
2019-02-26T04:28:59.933Z,36.9
2019-02-26T04:29:58.583Z,37.1
2019-02-26T04:30:58.728Z,37.1
2019-02-26T04:31:27.225Z,37
2019-02-26T04:32:31.016Z,36.9
2019-02-26T04:33:19.927Z,36.7
2019-02-26T04:34:12.953Z,36.4
2019-02-26T04:34:53.923Z,35.9
2019-02-26T04:35:37.745Z,35.4
2019-02-26T04:36:37.561Z,35
2019-02-26T04:37:21.623Z,35.1
2019-02-26T04:38:18.051Z,35.8
2019-02-26T04:39:04.712Z,36.5
2019-02-26T04:39:59.080Z,36.9
2019-02-26T04:40:49.710Z,37.2
2019-02-26T04:41:27.257Z,37.4
2019-02-26T04:42:28.297Z,37.4
2019-02-26T04:43:21.430Z,37.3
2019-02-26T04:44:12.991Z,37.1
2019-02-26T04:45:11.724Z,36.9
2019-02-26T04:45:38.141Z,36.7
2019-02-26T04:46:43.200Z,36.4
2019-02-26T04:47:34.050Z,35.8
2019-02-26T04:48:14.637Z,36.2
2019-02-26T04:48:57.522Z,36.7
2019-02-26T04:50:00.420Z,37
2019-02-26T04:50:52.846Z,37.4
2019-02-26T04:51:29.127Z,37.6
2019-02-26T04:52:32.132Z,37.6
2019-02-26T04:53:19.675Z,37.5
2019-02-26T04:54:09.565Z,37.4
2019-02-26T04:54:49.814Z,37.3
2019-02-26T04:55:53.245Z,37.1
2019-02-26T04:56:42.760Z,36.8
2019-02-26T04:57:18.717Z,36.4
2019-02-26T04:58:22.838Z,36.1
2019-02-26T04:58:58.869Z,36.3
2019-02-26T04:59:55.450Z,36.7
2019-02-26T05:00:48.164Z,37.2
2019-02-26T05:01:29.011Z,37.5
2019-02-26T05:02:19.054Z,37.6
2019-02-26T05:03:25.171Z,37.7
2019-02-26T05:03:58.878Z,37.6
2019-02-26T05:04:52.199Z,37.6
2019-02-26T05:05:51.219Z,37.4
2019-02-26T05:06:29.383Z,37.2
2019-02-26T05:07:28.668Z,37.1
2019-02-26T05:08:23.754Z,36.8
2019-02-26T05:09:15.369Z,36.4
2019-02-26T05:10:04.819Z,36.9
2019-02-26T05:10:43.461Z,37.3
2019-02-26T05:11:49.638Z,37.6
2019-02-26T05:12:20.111Z,37.8
2019-02-26T05:13:18.384Z,37.8
2019-02-26T05:14:00.156Z,37.8
2019-02-26T05:14:50.200Z,37.8
2019-02-26T05:15:46.324Z,37.6
2019-02-26T05:16:47.146Z,37.5
2019-02-26T05:17:34.916Z,37.3
2019-02-26T05:18:10.237Z,37.1
2019-02-26T05:19:07.398Z,36.9
2019-02-26T05:20:03.183Z,37.1
2019-02-26T05:20:56.565Z,37.6
2019-02-26T05:21:44.232Z,37.8
2019-02-26T05:22:34.675Z,38
2019-02-26T05:23:14.300Z,38.1
2019-02-26T05:24:15.611Z,38.1
2019-02-26T05:25:04.435Z,38.3
2019-02-26T05:25:53.039Z,38.3
2019-02-26T05:26:33.808Z,38.3
2019-02-26T05:27:36.112Z,38.3
2019-02-26T05:28:24.948Z,38.3
2019-02-26T05:29:01.536Z,38.3
2019-02-26T05:30:03.738Z,38.2
2019-02-26T05:30:54.680Z,38.1
2019-02-26T05:31:45.242Z,37.8
2019-02-26T05:32:35.472Z,37.4
2019-02-26T05:33:15.518Z,37.1
2019-02-26T05:34:09.592Z,36.8
2019-02-26T05:34:59.502Z,36.3
2019-02-26T05:35:55.567Z,35.8
2019-02-26T05:36:50.284Z,36
2019-02-26T05:37:23.707Z,36.8
2019-02-26T05:38:19.196Z,37.2
2019-02-26T05:39:10.509Z,37.5
2019-02-26T05:40:03.148Z,37.6
2019-02-26T05:41:02.162Z,37.8
2019-02-26T05:41:31.084Z,37.7
2019-02-26T05:42:21.820Z,37.5
2019-02-26T05:43:15.715Z,37.2
2019-02-26T05:44:18.405Z,36.9
2019-02-26T05:45:10.394Z,36.9
2019-02-26T05:45:45.153Z,37.4
2019-02-26T05:46:38.497Z,37.6
2019-02-26T05:47:34.725Z,37.8
2019-02-26T05:48:25.764Z,37.8
2019-02-26T05:49:16.931Z,37.8
2019-02-26T05:49:55.972Z,37.5
2019-02-26T05:50:54.168Z,37.3
2019-02-26T05:51:46.362Z,36.9
2019-02-26T05:52:37.627Z,37.1
2019-02-26T05:53:22.542Z,37.6
2019-02-26T05:54:27.415Z,37.8
2019-02-26T05:54:54.379Z,37.9
2019-02-26T05:55:58.173Z,37.9
2019-02-26T05:56:40.745Z,37.9
2019-02-26T05:57:42.694Z,37.8
2019-02-26T05:58:27.640Z,37.4
2019-02-26T05:59:25.641Z,37.1
2019-02-26T05:59:53.289Z,36.7
2019-02-26T06:00:43.645Z,36.6
2019-02-26T06:01:37.374Z,37.3
2019-02-26T06:02:33.587Z,37.6
2019-02-26T06:03:27.048Z,37.8
2019-02-26T06:06:09.395Z,37.8
2019-02-26T06:07:07.599Z,37.4
2019-02-26T06:07:48.194Z,36.9
2019-02-26T06:08:49.614Z,36.6
2019-02-26T06:09:36.742Z,37.2
2019-02-26T06:10:11.372Z,37.6
2019-02-26T06:11:01.707Z,37.8
2019-02-26T06:11:59.920Z,37.8
2019-02-26T06:12:55.183Z,37.9
2019-02-26T06:13:47.011Z,37.6
2019-02-26T06:14:30.229Z,37.3
2019-02-26T06:15:17.488Z,36.9
2019-02-26T06:16:15.654Z,36.8
2019-02-26T06:17:03.889Z,37.4
2019-02-26T06:18:02.069Z,37.8
2019-02-26T06:18:31.762Z,37.9
2019-02-26T06:19:27.008Z,37.9
2019-02-26T06:20:20.093Z,37.9
2019-02-26T06:21:09.701Z,37.6
2019-02-26T06:22:04.854Z,37.3
2019-02-26T06:22:45.269Z,36.9
2019-02-26T06:23:49.719Z,37.1
2019-02-26T06:24:41.645Z,37.6
2019-02-26T06:25:34.273Z,37.9
2019-02-26T06:26:43.107Z,38
2019-02-26T06:26:55.621Z,38.1
2019-02-26T06:27:46.402Z,38.1
2019-02-26T06:28:56.145Z,37.9
2019-02-26T06:29:44.637Z,37.5
2019-02-26T06:30:22.411Z,37.2
2019-02-26T06:31:06.496Z,37.1
2019-02-26T06:32:02.957Z,37.6
2019-02-26T06:32:54.548Z,37.9
2019-02-26T06:34:05.600Z,38.1
2019-02-26T06:34:31.423Z,38.1
2019-02-26T06:35:27.942Z,38.1
2019-02-26T06:36:14.568Z,37.9
2019-02-26T06:37:02.682Z,37.6
2019-02-26T06:37:49.202Z,37.3
2019-02-26T06:38:43.075Z,37.4
2019-02-26T06:39:43.432Z,37.9
2019-02-26T06:40:17.293Z,38.1
2019-02-26T06:41:06.929Z,38.2
2019-02-26T06:42:00.342Z,38.2
2019-02-26T06:42:49.797Z,38.1
2019-02-26T06:44:00.483Z,37.9
2019-02-26T06:44:27.607Z,37.6
2019-02-26T06:45:25.837Z,37.4
2019-02-26T06:46:21.424Z,37.1
2019-02-26T06:47:02.545Z,37.7
2019-02-26T06:48:00.115Z,37.9
2019-02-26T06:48:41.638Z,38.2
2019-02-26T06:49:37.755Z,38.3
2019-02-26T06:50:27.319Z,38.3
2019-02-26T06:51:16.319Z,38.2
2019-02-26T06:52:02.884Z,38
2019-02-26T06:52:58.655Z,37.7
2019-02-26T06:53:37.961Z,37.4
2019-02-26T06:54:40.352Z,37.1
2019-02-26T06:55:18.649Z,36.8
2019-02-26T06:56:10.582Z,37.3
2019-02-26T06:57:02.975Z,37.6
2019-02-26T06:58:03.042Z,37.2
2019-02-26T06:58:49.809Z,36
2019-02-26T06:59:39.781Z,35.6
2019-02-26T07:00:31.504Z,35.6
2019-02-26T07:01:19.409Z,35.7
2019-02-26T07:02:01.984Z,35.6
2019-02-26T07:02:53.447Z,35.3
2019-02-26T07:03:42.913Z,35
2019-02-26T07:06:07.513Z,34.1
2019-02-26T07:06:50.051Z,33.6
2019-02-26T07:07:41.664Z,33.4
2019-02-26T07:08:41.938Z,33.1
2019-02-26T07:09:32.238Z,32.7
2019-02-26T07:10:26.654Z,32.4
2019-02-26T07:11:04.290Z,32.1
2019-02-26T07:11:51.656Z,31.9
2019-02-26T07:12:54.206Z,31.8
2019-02-26T07:13:31.563Z,31.4
2019-02-26T07:14:30.165Z,31.3
2019-02-26T07:15:16.490Z,31
2019-02-26T07:16:06.590Z,30.8
2019-02-26T07:16:51.480Z,30.6
2019-02-26T07:17:54.335Z,30.4
2019-02-26T07:18:32.377Z,30.2
2019-02-26T07:19:37.930Z,30.1
2019-02-26T07:20:13.413Z,29.8
2019-02-26T07:21:09.243Z,29.6
2019-02-26T07:22:01.343Z,29.4
2019-02-26T07:22:54.995Z,29.3
2019-02-26T07:23:45.385Z,29.1
2019-02-26T07:24:34.770Z,28.9
2019-02-26T07:25:25.151Z,28.8
2019-02-26T07:26:03.159Z,28.6
2019-02-26T07:26:58.245Z,28.5
2019-02-26T07:27:48.021Z,28.4
2019-02-26T07:28:35.603Z,28.2
2019-02-26T07:29:33.214Z,28
2019-02-26T07:31:14.618Z,27.7
2019-02-26T07:32:04.762Z,27.4
2019-02-26T07:32:55.389Z,27.3
2019-02-26T07:33:45.647Z,27.2
2019-02-26T07:34:35.147Z,27.1
2019-02-26T07:35:25.687Z,26.9
2019-02-26T07:36:13.419Z,26.8
2019-02-26T07:37:01.257Z,26.7
2019-02-26T07:37:49.519Z,26.6
2019-02-26T07:39:00.554Z,26.4
2019-02-26T07:39:32.299Z,26.3
2019-02-26T07:40:37.866Z,26.1
2019-02-26T07:41:14.787Z,27.2
2019-02-26T07:42:03.547Z,27.9
2019-02-26T07:42:57.617Z,29
2019-02-26T07:43:44.014Z,30.1
2019-02-26T07:44:37.445Z,31.1
2019-02-26T07:45:39.459Z,31.4
2019-02-26T07:46:04.241Z,31.5
2019-02-26T07:46:54.976Z,31.5
2019-02-26T07:48:02.051Z,31.5
2019-02-26T07:48:42.329Z,31.4
2019-02-26T07:49:26.349Z,31.3
2019-02-26T07:50:25.975Z,31.1
2019-02-26T07:51:04.068Z,30.8
2019-02-26T07:51:57.806Z,30.6
2019-02-26T07:52:44.638Z,30.4
2019-02-26T07:53:34.734Z,30.1
2019-02-26T07:54:24.466Z,29.9
2019-02-26T07:55:30.202Z,29.5
2019-02-26T07:56:16.651Z,28.9
2019-02-26T07:57:07.623Z,28.7
2019-02-26T07:57:57.828Z,28.4
2019-02-26T07:58:47.629Z,28.2
2019-02-26T07:59:54.568Z,28
2019-02-26T08:01:05.124Z,27.8
2019-02-26T08:02:03.738Z,27.6
2019-02-26T08:02:47.610Z,27.4
2019-02-26T08:03:39.334Z,27.3
2019-02-26T08:04:27.571Z,27.1
2019-02-26T08:05:26.091Z,26.8
2019-02-26T08:06:20.133Z,27.6
2019-02-26T08:07:07.725Z,28.8
2019-02-26T08:07:58.555Z,29.8
2019-02-26T08:08:39.689Z,30.8
2019-02-26T08:09:32.612Z,31.6
2019-02-26T08:10:28.127Z,31.5
2019-02-26T08:11:05.673Z,31.6
2019-02-26T08:11:58.483Z,31.6
2019-02-26T08:12:52.143Z,31.4
2019-02-26T08:13:45.605Z,31.3
2019-02-26T08:14:34.054Z,31.1
2019-02-26T08:15:24.515Z,30.9
2019-02-26T08:16:14.445Z,30.6
2019-02-26T08:17:14.239Z,30.4
2019-02-26T08:18:07.787Z,30.1
2019-02-26T08:18:36.457Z,29.8
2019-02-26T08:19:34.412Z,29.4
2019-02-26T08:20:23.529Z,28.9
2019-02-26T08:21:14.450Z,28.6
2019-02-26T08:22:06.074Z,28.4
2019-02-26T08:22:46.449Z,28.2
2019-02-26T08:23:36.835Z,28.1
2019-02-26T08:24:33.534Z,27.9
2019-02-26T08:25:17.142Z,27.7
2019-02-26T08:26:12.190Z,27.6
2019-02-26T08:27:05.814Z,27.4
2019-02-26T08:27:56.304Z,27.2
2019-02-26T08:28:49.172Z,26.9
2019-02-26T08:29:39.554Z,28.1
2019-02-26T08:30:31.239Z,29.1
2019-02-26T08:31:27.905Z,30.2
2019-02-26T08:32:17.983Z,31.3
2019-02-26T08:33:11.142Z,31.7
2019-02-26T08:33:37.564Z,31.7
2019-02-26T08:34:27.462Z,31.8
2019-02-26T08:35:21.934Z,31.8
2019-02-26T08:36:07.589Z,31.6
2019-02-26T08:36:57.318Z,31.5
2019-02-26T08:37:47.741Z,31.3
2019-02-26T08:38:40.002Z,31.1
2019-02-26T08:39:26.736Z,30.8
2019-02-26T08:40:20.221Z,30.6
2019-02-26T08:41:07.956Z,30.3
2019-02-26T08:41:57.414Z,30.1
2019-02-26T08:42:48.074Z,29.7
2019-02-26T08:43:37.881Z,29.2
2019-02-26T08:44:29.461Z,28.9
2019-02-26T08:45:34.167Z,28.6
2019-02-26T08:46:19.943Z,28.3
2019-02-26T08:46:59.691Z,28.1
2019-02-26T08:47:46.583Z,28
2019-02-26T08:49:31.713Z,27.6
2019-02-26T08:50:24.218Z,27.4
2019-02-26T08:51:29.293Z,27.2
2019-02-26T08:51:58.675Z,27.3
2019-02-26T08:53:02.872Z,28.1
2019-02-26T08:53:41.045Z,29.5
2019-02-26T08:54:43.598Z,30.3
2019-02-26T08:55:32.787Z,31.6
2019-02-26T08:56:15.424Z,31.8
2019-02-26T08:56:59.290Z,31.8
2019-02-26T08:57:57.085Z,31.9
2019-02-26T08:58:40.612Z,31.8
2019-02-26T08:59:29.520Z,31.7
2019-02-26T09:00:19.305Z,31.6
2019-02-26T09:01:08.675Z,31.3
2019-02-26T09:01:59.056Z,31.1
2019-02-26T09:03:04.925Z,30.9
2019-02-26T09:04:01.932Z,30.6
2019-02-26T09:04:37.802Z,30.3
2019-02-26T09:05:31.516Z,30.1
2019-02-26T09:06:25.235Z,29.8
2019-02-26T09:07:10.810Z,29.6
2019-02-26T09:07:59.002Z,29.3
2019-02-26T09:08:51.319Z,29.1
2019-02-26T09:09:41.612Z,28.9
2019-02-26T09:10:31.043Z,28.6
2019-02-26T09:11:22.028Z,28.4
2019-02-26T09:12:11.202Z,28.2
2019-02-26T09:13:00.968Z,28
2019-02-26T09:13:53.055Z,27.8
2019-02-26T09:14:49.920Z,28.8
2019-02-26T09:15:22.632Z,30
2019-02-26T09:16:16.740Z,30.6
2019-02-26T09:17:12.922Z,31.6
2019-02-26T09:17:52.482Z,32.2
2019-02-26T09:18:49.899Z,32.2
2019-02-26T09:19:45.162Z,32.3
2019-02-26T09:20:24.444Z,32.2
2019-02-26T09:21:25.836Z,32.1
2019-02-26T09:22:04.552Z,31.8
2019-02-26T09:23:09.494Z,31.7
2019-02-26T09:23:42.662Z,31.4
2019-02-26T09:24:30.605Z,31.2
2019-02-26T09:25:34.589Z,30.9
2019-02-26T09:26:16.647Z,30.6
2019-02-26T09:27:12.949Z,30.4
2019-02-26T09:27:52.871Z,30.1
2019-02-26T09:28:41.669Z,29.9
2019-02-26T09:29:48.262Z,29.6
2019-02-26T09:30:27.930Z,29.3
2019-02-26T09:31:22.106Z,29.1
2019-02-26T09:32:01.084Z,28.9
2019-02-26T09:33:00.891Z,28.7
2019-02-26T09:33:53.478Z,28.4
2019-02-26T09:34:47.444Z,28.2
2019-02-26T09:36:32.353Z,28.7
2019-02-26T09:37:15.986Z,29.8
2019-02-26T09:38:08.934Z,30.6
2019-02-26T09:38:53.888Z,31.6
2019-02-26T09:39:43.583Z,32.3
2019-02-26T09:40:40.110Z,32.2
2019-02-26T09:41:22.848Z,32.3
2019-02-26T09:42:14.228Z,32.2
2019-02-26T09:43:12.279Z,32.1
2019-02-26T09:43:54.313Z,31.9
2019-02-26T09:44:44.682Z,31.7
2019-02-26T09:45:36.918Z,31.4
2019-02-26T09:46:27.260Z,31.2
2019-02-26T09:47:14.481Z,30.9
2019-02-26T09:48:07.728Z,30.7
2019-02-26T09:48:54.590Z,30.4
2019-02-26T09:49:43.794Z,30.1
2019-02-26T09:50:31.843Z,29.9
2019-02-26T09:51:24.292Z,29.6
2019-02-26T09:52:14.622Z,29.4
2019-02-26T09:53:06.334Z,29.1
2019-02-26T09:53:42.582Z,28.9
2019-02-26T09:54:42.623Z,28.8
2019-02-26T09:55:23.215Z,28.4
2019-02-26T09:56:12.492Z,28.3
2019-02-26T09:57:02.254Z,28.1
2019-02-26T09:57:52.119Z,28.2
2019-02-26T09:58:56.855Z,29.3
2019-02-26T09:59:45.242Z,30.5
2019-02-26T10:00:38.220Z,31.4
2019-02-26T10:01:24.373Z,32.4
2019-02-26T10:02:14.272Z,32.3
2019-02-26T10:03:02.509Z,32.4
2019-02-26T10:03:50.785Z,32.3
2019-02-26T10:04:37.936Z,32.3
2019-02-26T10:07:11.710Z,31.7
2019-02-26T10:08:03.224Z,31.4
2019-02-26T10:08:39.694Z,31.1
2019-02-26T10:09:37.367Z,30.9
2019-02-26T10:10:25.330Z,30.6
2019-02-26T10:11:18.252Z,30.3
2019-02-26T10:12:12.777Z,30
2019-02-26T10:13:05.396Z,29.8
2019-02-26T10:13:53.719Z,29.5
2019-02-26T10:14:43.712Z,29.3
2019-02-26T10:15:20.132Z,29
2019-02-26T10:16:17.379Z,28.9
2019-02-26T10:17:06.187Z,28.6
2019-02-26T10:17:56.173Z,28.4
2019-02-26T10:18:42.458Z,28.1
2019-02-26T10:19:43.536Z,28
2019-02-26T10:20:36.106Z,29.3
2019-02-26T10:21:26.016Z,30.3
2019-02-26T10:22:19.213Z,31.3
2019-02-26T10:23:06.765Z,32.3
2019-02-26T10:23:42.147Z,32.3
2019-02-26T10:24:48.274Z,32.4
2019-02-26T10:25:42.406Z,32.4
2019-02-26T10:26:19.933Z,32.3
2019-02-26T10:27:21.711Z,32.1
2019-02-26T10:27:57.073Z,31.9
2019-02-26T10:29:14.681Z,31.7
2019-02-26T10:29:49.769Z,31.3
2019-02-26T10:30:33.264Z,31.1
2019-02-26T10:31:26.739Z,30.9
2019-02-26T10:32:05.638Z,30.6
2019-02-26T10:33:01.731Z,30.4
2019-02-26T10:33:58.655Z,30.1
2019-02-26T10:34:40.031Z,29.8
2019-02-26T10:35:56.383Z,29.6
2019-02-26T10:36:25.933Z,29.2
2019-02-26T10:37:03.283Z,29.1
2019-02-26T10:37:54.058Z,28.9
2019-02-26T10:38:47.675Z,28.6
2019-02-26T10:39:41.741Z,28.4
2019-02-26T10:41:06.263Z,28.1
2019-02-26T10:41:17.066Z,28.7
2019-02-26T10:42:13.149Z,28.9
2019-02-26T10:42:56.916Z,30
2019-02-26T10:43:50.502Z,30.8
2019-02-26T10:44:38.535Z,31.8
2019-02-26T10:45:26.385Z,32.5
2019-02-26T10:46:17.560Z,32.3
2019-02-26T10:47:18.797Z,32.3
2019-02-26T10:48:09.915Z,32.3
2019-02-26T10:48:59.428Z,32.1
2019-02-26T10:49:39.005Z,31.9
2019-02-26T10:50:56.562Z,31.8
2019-02-26T10:51:29.789Z,31.3
2019-02-26T10:52:16.442Z,31.2
2019-02-26T10:53:28.639Z,30.9
2019-02-26T10:53:48.802Z,30.6
2019-02-26T10:54:55.097Z,30.4
2019-02-26T10:55:51.130Z,30.1
2019-02-26T10:56:18.234Z,29.8
2019-02-26T10:57:23.791Z,29.6
2019-02-26T10:58:18.944Z,29.3
2019-02-26T10:58:47.951Z,29.1
2019-02-26T10:59:41.711Z,28.9
2019-02-26T11:00:45.054Z,28.6
2019-02-26T11:01:37.019Z,28.4
2019-02-26T11:02:14.433Z,28.1
2019-02-26T11:03:08.896Z,27.9
2019-02-26T11:04:06.349Z,29
2019-02-26T11:05:03.839Z,30.1
2019-02-26T11:05:48.522Z,31.2
2019-02-26T11:06:38.352Z,32.1
2019-02-26T11:07:23.619Z,32.6
2019-02-26T11:08:16.326Z,32.6
2019-02-26T11:09:04.398Z,32.6
2019-02-26T11:09:44.585Z,32.6
2019-02-26T11:10:42.081Z,32.4
2019-02-26T11:11:32.714Z,32.2
2019-02-26T11:12:22.720Z,32
2019-02-26T11:13:09.646Z,31.7
2019-02-26T11:14:05.060Z,31.4
2019-02-26T11:14:53.056Z,31.1
2019-02-26T11:15:44.724Z,30.9
2019-02-26T11:16:44.913Z,30.6
2019-02-26T11:17:10.033Z,30.3
2019-02-26T11:18:08.192Z,30.2
2019-02-26T11:18:56.656Z,29.8
2019-02-26T11:19:50.808Z,29.6